Time;durP1;ratioP1;P1;durP2;ratioP2;P2;SDS_P1;SDS_P2;PMS_P1;PMS_P2;Temp;Humidity;BMP_temperature;BMP_pressure;BME280_temperature;BME280_humidity;BME280_pressure;Samples;Min_cycle;Max_cycle;Signal;HPM_P1;HPM_P2
2023/12/05 00:00:05;;;;;;;19.03;12.03;;;-0.50;45.10;;;;;;4946927;28;46437;-73
2023/12/05 00:02:31;;;;;;;21.42;13.25;;;-0.40;44.90;;;;;;4947176;28;46449;-71
2023/12/05 00:04:57;;;;;;;22.67;12.30;;;-0.20;44.80;;;;;;4948420;28;46503;-72
2023/12/05 00:07:23;;;;;;;23.80;13.10;;;-0.20;44.50;;;;;;4945775;28;46613;-73
2023/12/05 00:09:49;;;;;;;25.23;13.07;;;-0.20;44.70;;;;;;4950074;28;46208;-73
2023/12/05 00:12:15;;;;;;;25.93;13.80;;;-0.10;44.20;;;;;;4950434;28;46424;-72
2023/12/05 00:14:40;;;;;;;23.73;13.57;;;-0.10;44.40;;;;;;4946164;28;46448;-73
2023/12/05 00:17:06;;;;;;;20.83;12.87;;;-0.10;44.40;;;;;;4948476;28;46491;-73
2023/12/05 00:19:32;;;;;;;23.20;13.27;;;0.00;44.80;;;;;;4947808;28;46672;-73
2023/12/05 00:21:57;;;;;;;19.80;12.47;;;0.00;45.00;;;;;;4947855;28;46460;-72
2023/12/05 00:24:23;;;;;;;24.50;13.60;;;0.00;45.10;;;;;;4951338;28;45946;-72
2023/12/05 00:26:49;;;;;;;26.97;13.77;;;0.10;44.80;;;;;;4950883;28;46761;-73
2023/12/05 00:29:15;;;;;;;21.23;13.50;;;0.30;44.30;;;;;;4946569;28;47537;-73
2023/12/05 00:31:41;;;;;;;26.77;13.53;;;0.40;44.40;;;;;;4949086;28;46916;-72
2023/12/05 00:34:06;;;;;;;23.10;12.70;;;0.40;44.40;;;;;;4947919;28;47111;-72
2023/12/05 00:36:32;;;;;;;22.30;12.40;;;0.50;44.40;;;;;;4953639;28;46323;-73
2023/12/05 00:38:57;;;;;;;20.40;13.17;;;0.50;44.50;;;;;;4946435;28;46444;-72
2023/12/05 00:41:25;;;;;;;21.80;12.97;;;0.60;44.60;;;;;;4946482;28;45848;-72
2023/12/05 00:43:54;;;;;;;20.13;11.85;;;0.60;44.60;;;;;;4945713;28;46968;-72
2023/12/05 00:46:22;;;;;;;24.25;12.50;;;0.60;44.60;;;;;;4946051;28;46520;-71
2023/12/05 00:48:48;;;;;;;18.45;11.98;;;0.70;44.60;;;;;;4946308;28;47173;-72
2023/12/05 00:51:13;;;;;;;21.00;12.40;;;0.80;44.70;;;;;;4945910;28;46512;-73
2023/12/05 00:53:39;;;;;;;20.57;13.27;;;0.80;44.70;;;;;;4948382;28;46745;-71
2023/12/05 00:56:10;;;;;;;22.27;12.30;;;0.90;44.80;;;;;;4945353;28;46489;-71
2023/12/05 00:58:36;;;;;;;19.40;12.25;;;0.90;46.10;;;;;;4946248;28;46436;-73
2023/12/05 01:01:02;;;;;;;20.83;12.00;;;1.00;44.90;;;;;;4947132;28;46446;-73
2023/12/05 01:03:27;;;;;;;23.67;12.02;;;1.00;45.00;;;;;;4949067;28;46455;-73
2023/12/05 01:05:53;;;;;;;19.13;11.60;;;1.10;44.90;;;;;;4946445;28;46481;-72
2023/12/05 01:08:18;;;;;;;20.97;12.47;;;1.10;44.70;;;;;;4946544;28;46402;-73
2023/12/05 01:10:44;;;;;;;21.47;11.87;;;1.20;44.50;;;;;;4948727;28;46549;-73
2023/12/05 01:13:10;;;;;;;20.47;12.50;;;1.20;45.00;;;;;;4946092;28;46468;-73
2023/12/05 01:15:35;;;;;;;18.60;12.00;;;1.10;45.00;;;;;;4943807;28;46409;-73
2023/12/05 01:18:02;;;;;;;17.10;11.83;;;1.20;45.20;;;;;;4945448;28;46453;-73
2023/12/05 01:20:28;;;;;;;17.17;11.63;;;1.20;45.10;;;;;;4947190;28;46513;-73
2023/12/05 01:22:54;;;;;;;18.13;11.63;;;1.30;45.20;;;;;;4948949;28;46417;-72
2023/12/05 01:25:19;;;;;;;19.30;11.53;;;1.30;45.20;;;;;;4944811;28;46556;-72
2023/12/05 01:27:45;;;;;;;17.13;10.53;;;1.40;45.30;;;;;;4945117;28;46450;-72
2023/12/05 01:30:11;;;;;;;19.27;11.00;;;1.30;45.20;;;;;;4947430;28;46777;-72
2023/12/05 01:32:37;;;;;;;21.07;12.03;;;1.30;45.10;;;;;;4948580;28;46659;-72
2023/12/05 01:35:03;;;;;;;19.23;11.90;;;1.30;45.20;;;;;;4949577;28;46454;-72
2023/12/05 01:37:28;;;;;;;17.27;11.40;;;1.40;45.30;;;;;;4909596;28;1234096;-72
2023/12/05 01:39:54;;;;;;;19.40;12.53;;;1.40;45.30;;;;;;4951780;28;46524;-71
2023/12/05 01:42:19;;;;;;;17.83;11.53;;;1.50;45.30;;;;;;4949882;28;46509;-71
2023/12/05 01:44:45;;;;;;;18.87;11.67;;;1.50;45.30;;;;;;4951665;28;46849;-72
2023/12/05 01:47:13;;;;;;;22.40;12.80;;;1.50;45.30;;;;;;4951015;28;46887;-72
2023/12/05 01:49:40;;;;;;;19.27;11.15;;;1.60;45.40;;;;;;4950847;28;46355;-73
2023/12/05 01:52:07;;;;;;;17.35;11.13;;;1.50;45.30;;;;;;4951713;28;46558;-72
2023/12/05 01:54:32;;;;;;;19.38;11.00;;;1.50;45.40;;;;;;4949387;28;46435;-73
2023/12/05 01:56:59;;;;;;;18.03;11.27;;;1.50;45.30;;;;;;4949782;28;46634;-72
2023/12/05 01:59:26;;;;;;;19.05;11.63;;;1.50;45.30;;;;;;4950166;28;46536;-71
2023/12/05 02:01:53;;;;;;;17.75;10.93;;;1.60;45.40;;;;;;4951818;28;46445;-72
2023/12/05 02:04:18;;;;;;;20.45;12.32;;;1.60;45.40;;;;;;4948988;28;46425;-71
2023/12/05 02:06:49;;;;;;;19.10;11.40;;;1.60;45.40;;;;;;4948984;28;46473;-72
2023/12/05 02:09:16;;;;;;;17.20;11.60;;;1.70;45.50;;;;;;4952780;28;46493;-73
2023/12/05 02:11:42;;;;;;;18.92;11.00;;;1.60;45.40;;;;;;4952373;28;46482;-73
2023/12/05 02:14:09;;;;;;;17.67;10.52;;;1.60;45.50;;;;;;4952719;28;45919;-72
2023/12/05 02:16:45;;;;;;;18.67;11.52;;;1.50;45.80;;;;;;4950389;28;46439;-72
2023/12/05 02:19:37;;;;;;;17.80;11.18;;;1.40;47.00;;;;;;4949884;28;46463;-73
2023/12/05 02:22:09;;;;;;;15.25;9.70;;;1.40;47.10;;;;;;4949795;28;46482;-74
2023/12/05 02:24:34;;;;;;;16.33;10.23;;;1.40;46.80;;;;;;4952515;28;46552;-73
2023/12/05 02:27:09;;;;;;;14.60;9.37;;;1.50;46.90;;;;;;4949513;28;46285;-72
2023/12/05 02:29:51;;;;;;;13.55;9.13;;;1.50;46.90;;;;;;4966042;28;46416;-73
2023/12/05 02:32:17;;;;;;;11.20;7.70;;;1.50;46.80;;;;;;4954323;28;46557;-72
2023/12/05 02:34:43;;;;;;;13.88;8.10;;;1.70;46.50;;;;;;4954199;28;46146;-72
2023/12/05 02:37:32;;;;;;;11.23;7.43;;;1.80;46.20;;;;;;4956402;28;48300;-72
2023/12/05 02:40:25;;;;;;;11.10;7.35;;;1.90;45.70;;;;;;4941074;28;46454;-72
2023/12/05 02:42:55;;;;;;;8.10;5.60;;;1.90;45.70;;;;;;4945861;28;46485;-71
2023/12/05 02:45:24;;;;;;;8.88;5.97;;;1.90;46.10;;;;;;4949752;28;46566;-73
2023/12/05 02:47:50;;;;;;;8.52;6.00;;;2.00;46.30;;;;;;4950003;28;47363;-72
2023/12/05 02:50:17;;;;;;;12.25;7.38;;;2.00;46.30;;;;;;4947703;28;46512;-72
2023/12/05 02:52:43;;;;;;;10.15;6.80;;;2.10;46.30;;;;;;4949387;28;45935;-72
2023/12/05 02:55:09;;;;;;;11.03;7.20;;;2.10;46.20;;;;;;4950365;28;46813;-73
2023/12/05 02:57:34;;;;;;;10.40;7.00;;;2.20;46.10;;;;;;4950852;28;46448;-71
2023/12/05 03:00:00;;;;;;;12.03;7.53;;;2.20;45.90;;;;;;4949993;28;46533;-72
2023/12/05 03:02:25;;;;;;;10.97;6.50;;;2.30;46.00;;;;;;4951551;28;45767;-72
2023/12/05 03:04:51;;;;;;;10.93;6.50;;;2.30;46.00;;;;;;4950250;28;46407;-71
2023/12/05 03:07:16;;;;;;;10.13;6.10;;;2.30;46.00;;;;;;4949448;28;46477;-72
2023/12/05 03:09:42;;;;;;;8.60;5.67;;;2.40;46.10;;;;;;4951487;28;46478;-71
2023/12/05 03:12:08;;;;;;;10.40;6.10;;;2.40;46.10;;;;;;4951120;28;46166;-72
2023/12/05 03:14:33;;;;;;;11.50;6.20;;;2.50;46.20;;;;;;4948499;28;46457;-73
2023/12/05 03:16:59;;;;;;;8.20;4.87;;;2.50;46.20;;;;;;4948559;28;46674;-73
2023/12/05 03:19:24;;;;;;;8.80;3.90;;;2.50;46.20;;;;;;4951461;28;46476;-73
2023/12/05 03:21:50;;;;;;;6.60;3.80;;;2.50;46.60;;;;;;4951030;28;46472;-73
2023/12/05 03:24:16;;;;;;;4.00;2.83;;;2.50;46.90;;;;;;4949811;28;46806;-73
2023/12/05 03:26:42;;;;;;;5.13;3.30;;;2.50;47.20;;;;;;4948401;28;46482;-73
2023/12/05 03:29:07;;;;;;;5.77;3.20;;;2.40;47.90;;;;;;4948893;28;46449;-71
2023/12/05 03:31:37;;;;;;;7.63;3.53;;;2.30;48.60;;;;;;4949326;28;46481;-71
2023/12/05 03:34:03;;;;;;;6.88;3.15;;;2.20;49.40;;;;;;4947875;28;45939;-73
2023/12/05 03:36:28;;;;;;;5.80;3.70;;;2.10;50.00;;;;;;4950799;28;46539;-73
2023/12/05 03:38:54;;;;;;;6.07;2.87;;;2.00;50.40;;;;;;4946373;28;46656;-72
2023/12/05 03:41:19;;;;;;;4.90;3.00;;;2.10;50.80;;;;;;4949478;28;46559;-73
2023/12/05 03:43:45;;;;;;;3.77;2.67;;;2.00;52.00;;;;;;4949101;28;46916;-72
2023/12/05 03:46:11;;;;;;;6.03;3.37;;;2.10;51.00;;;;;;4948029;28;46436;-73
2023/12/05 03:48:36;;;;;;;4.43;2.40;;;2.10;51.20;;;;;;4948738;28;46473;-72
2023/12/05 03:51:02;;;;;;;4.13;2.63;;;2.20;51.50;;;;;;4951991;28;46448;-73
2023/12/05 03:53:28;;;;;;;4.65;2.80;;;2.20;51.60;;;;;;4946493;28;47640;-73
2023/12/05 03:55:54;;;;;;;5.40;2.70;;;2.30;51.70;;;;;;4952363;28;46184;-73
2023/12/05 03:58:20;;;;;;;5.10;2.53;;;2.30;51.90;;;;;;4948151;28;46327;-72
2023/12/05 04:00:45;;;;;;;4.90;3.30;;;2.30;52.40;;;;;;4952120;28;46539;-72
2023/12/05 04:03:11;;;;;;;5.10;3.10;;;2.20;53.30;;;;;;4949608;28;46394;-73
2023/12/05 04:05:38;;;;;;;4.27;3.17;;;2.10;54.30;;;;;;4949850;28;46515;-73
2023/12/05 04:08:04;;;;;;;4.97;3.00;;;2.10;54.80;;;;;;4948187;28;46473;-72
2023/12/05 04:10:30;;;;;;;4.73;3.00;;;2.10;55.20;;;;;;4947557;28;46446;-72
2023/12/05 04:12:55;;;;;;;3.50;2.50;;;2.10;55.20;;;;;;4949298;28;46369;-73
2023/12/05 04:15:21;;;;;;;4.00;2.30;;;2.20;55.10;;;;;;4949700;28;47106;-73
2023/12/05 04:17:47;;;;;;;3.93;2.73;;;2.10;55.20;;;;;;4948110;28;46516;-71
2023/12/05 04:20:13;;;;;;;3.00;1.87;;;2.10;55.60;;;;;;4950524;28;45901;-73
2023/12/05 04:22:39;;;;;;;4.70;2.40;;;2.00;56.20;;;;;;4951087;28;46938;-73
2023/12/05 04:25:04;;;;;;;4.50;2.47;;;2.00;56.50;;;;;;4947639;28;46507;-73
2023/12/05 04:27:30;;;;;;;2.57;1.60;;;1.90;56.90;;;;;;4950716;28;46449;-73
2023/12/05 04:29:56;;;;;;;4.37;2.17;;;1.90;56.90;;;;;;4950676;28;46526;-74
2023/12/05 04:32:21;;;;;;;3.00;2.27;;;1.90;56.90;;;;;;4948520;28;46697;-71
2023/12/05 04:34:47;;;;;;;3.20;1.93;;;1.80;56.90;;;;;;4951887;28;46341;-73
2023/12/05 04:37:13;;;;;;;3.33;2.10;;;1.80;57.20;;;;;;4948506;28;46426;-73
2023/12/05 04:39:40;;;;;;;3.63;2.17;;;1.70;57.60;;;;;;4997390;22;46793;-70
2023/12/05 04:42:06;;;;;;;2.70;2.10;;;1.60;58.10;;;;;;4980857;28;46392;-70
2023/12/05 04:44:32;;;;;;;4.30;2.10;;;1.50;58.20;;;;;;4982205;28;48708;-73
2023/12/05 04:46:58;;;;;;;2.80;2.00;;;1.40;58.30;;;;;;4974315;28;46699;-71
2023/12/05 04:49:24;;;;;;;2.93;1.87;;;1.20;58.70;;;;;;4982572;28;46492;-70
2023/12/05 04:51:49;;;;;;;2.08;1.52;;;1.10;58.90;;;;;;4979802;28;46624;-70
2023/12/05 04:54:15;;;;;;;3.90;1.70;;;1.20;59.20;;;;;;4978308;28;48308;-72
2023/12/05 04:56:42;;;;;;;2.20;1.57;;;1.20;59.20;;;;;;4977535;28;46414;-70
2023/12/05 04:59:08;;;;;;;2.95;2.00;;;1.20;59.20;;;;;;4975622;28;46638;-70
2023/12/05 05:01:34;;;;;;;2.73;1.93;;;1.20;59.50;;;;;;4970554;28;46602;-71
2023/12/05 05:03:59;;;;;;;2.80;2.07;;;1.30;59.40;;;;;;4979351;28;47922;-71
2023/12/05 05:06:25;;;;;;;3.90;1.70;;;1.30;59.30;;;;;;4968687;28;46558;-67
2023/12/05 05:08:51;;;;;;;7.40;2.17;;;1.30;59.30;;;;;;4980598;28;46377;-71
2023/12/05 05:11:16;;;;;;;3.80;2.20;;;1.20;59.10;;;;;;4976890;28;46514;-70
2023/12/05 05:13:42;;;;;;;3.57;1.80;;;1.20;59.30;;;;;;4978758;28;48975;-70
2023/12/05 05:16:10;;;;;;;2.43;2.00;;;1.20;59.30;;;;;;4980062;28;45837;-69
2023/12/05 05:18:37;;;;;;;3.70;2.17;;;1.10;59.30;;;;;;4979658;28;46522;-68
2023/12/05 05:21:05;;;;;;;3.75;2.20;;;1.10;59.30;;;;;;4976886;28;46391;-69
2023/12/05 05:23:31;;;;;;;3.63;2.20;;;1.10;59.10;;;;;;4979342;28;47960;-68
2023/12/05 05:25:56;;;;;;;2.70;2.03;;;1.10;59.00;;;;;;4981140;28;46510;-68
2023/12/05 05:28:22;;;;;;;5.40;2.37;;;1.10;58.80;;;;;;4984876;28;45882;-69
2023/12/05 05:30:48;;;;;;;2.20;1.43;;;1.10;58.60;;;;;;4983183;28;46660;-68
2023/12/05 05:33:14;;;;;;;2.63;1.70;;;1.00;58.50;;;;;;4978912;28;47834;-71
2023/12/05 05:35:40;;;;;;;4.73;2.00;;;0.90;58.70;;;;;;4979704;28;46539;-68
2023/12/05 05:38:05;;;;;;;3.97;2.37;;;0.90;58.50;;;;;;4983179;28;45897;-68
2023/12/05 05:40:31;;;;;;;2.63;1.80;;;0.90;58.30;;;;;;4982021;28;46270;-68
2023/12/05 05:42:57;;;;;;;2.77;2.00;;;0.90;58.10;;;;;;4982719;28;48818;-69
2023/12/05 05:45:22;;;;;;;3.90;2.60;;;1.00;57.70;;;;;;4977545;28;46388;-69
2023/12/05 05:47:48;;;;;;;5.20;2.47;;;1.10;57.80;;;;;;4981391;28;46475;-70
2023/12/05 05:50:14;;;;;;;4.93;2.00;;;1.10;57.80;;;;;;4985600;28;46431;-69
2023/12/05 05:52:41;;;;;;;2.60;1.70;;;1.30;57.50;;;;;;4981037;28;49013;-69
2023/12/05 05:55:07;;;;;;;7.18;1.65;;;1.40;57.20;;;;;;4965289;28;46432;-69
2023/12/05 05:57:35;;;;;;;2.47;1.70;;;1.60;56.60;;;;;;4981752;28;46733;-68
2023/12/05 06:00:03;;;;;;;2.30;1.60;;;1.80;56.10;;;;;;4982860;28;46445;-70
2023/12/05 06:02:29;;;;;;;4.53;1.65;;;1.90;55.80;;;;;;4978061;28;48852;-72
2023/12/05 06:04:54;;;;;;;2.93;1.80;;;2.00;55.50;;;;;;4978534;28;46446;-72
2023/12/05 06:07:21;;;;;;;2.37;2.00;;;2.10;55.50;;;;;;4981513;28;46408;-68
2023/12/05 06:09:47;;;;;;;2.60;1.75;;;2.20;55.40;;;;;;4979679;28;46407;-71
2023/12/05 06:12:12;;;;;;;2.40;1.70;;;2.20;55.50;;;;;;4978789;28;46600;-70
2023/12/05 06:14:38;;;;;;;3.20;1.70;;;2.30;55.50;;;;;;4978826;28;46472;-71
2023/12/05 06:17:04;;;;;;;3.50;2.00;;;2.30;55.40;;;;;;4978559;28;46789;-69
2023/12/05 06:19:29;;;;;;;6.83;2.13;;;2.40;55.40;;;;;;4980559;28;46598;-69
2023/12/05 06:21:55;;;;;;;3.40;2.00;;;2.40;55.50;;;;;;4995412;28;46453;-73
2023/12/05 06:24:21;;;;;;;2.37;1.87;;;2.40;55.40;;;;;;4983322;28;47051;-70
2023/12/05 06:26:46;;;;;;;2.90;1.87;;;2.50;55.50;;;;;;4979012;28;46452;-71
2023/12/05 06:29:12;;;;;;;2.33;1.27;;;2.50;55.40;;;;;;4983408;28;46813;-70
2023/12/05 06:31:38;;;;;;;2.73;1.73;;;2.50;55.40;;;;;;4980548;28;47893;-70
2023/12/05 06:34:04;;;;;;;2.92;1.98;;;2.60;55.50;;;;;;4981273;28;46364;-70
2023/12/05 06:36:30;;;;;;;2.90;1.60;;;2.60;55.40;;;;;;4982260;28;46792;-71
2023/12/05 06:38:56;;;;;;;6.30;2.30;;;2.70;55.50;;;;;;4983856;28;46493;-69
2023/12/05 06:41:21;;;;;;;4.13;2.23;;;2.70;55.50;;;;;;4981920;28;47990;-71
2023/12/05 06:43:47;;;;;;;2.80;1.90;;;2.60;55.70;;;;;;4981906;28;46432;-72
2023/12/05 06:46:13;;;;;;;3.10;2.20;;;2.60;55.80;;;;;;4983926;28;46403;-69
2023/12/05 06:48:38;;;;;;;3.57;2.00;;;2.60;55.60;;;;;;4986422;28;46592;-69
2023/12/05 06:51:04;;;;;;;4.73;2.23;;;2.60;55.60;;;;;;4978950;28;47906;-70
2023/12/05 06:53:30;;;;;;;4.72;2.63;;;2.60;55.50;;;;;;4985869;28;46466;-69
2023/12/05 06:55:55;;;;;;;4.87;2.83;;;2.50;55.50;;;;;;4981841;28;46466;-70
2023/12/05 06:58:24;;;;;;;3.87;2.50;;;2.50;56.80;;;;;;4978571;28;46507;-70
2023/12/05 07:00:50;;;;;;;3.42;2.00;;;2.60;55.70;;;;;;4971924;28;47852;-70
2023/12/05 07:03:15;;;;;;;3.10;1.87;;;2.60;55.50;;;;;;4983173;28;46493;-68
2023/12/05 07:05:41;;;;;;;2.90;1.40;;;2.70;55.50;;;;;;4982015;28;46402;-69
2023/12/05 07:08:08;;;;;;;4.07;1.40;;;2.80;55.50;;;;;;4985208;28;46460;-74
2023/12/05 07:10:34;;;;;;;6.57;1.90;;;2.90;55.50;;;;;;4982636;28;48057;-72
2023/12/05 07:12:59;;;;;;;3.42;1.58;;;3.00;55.60;;;;;;4984078;28;46526;-71
2023/12/05 07:15:25;;;;;;;3.30;1.80;;;3.00;55.70;;;;;;4981573;28;46559;-72
2023/12/05 07:17:50;;;;;;;3.03;1.80;;;3.10;55.80;;;;;;4978738;28;46251;-72
2023/12/05 07:20:16;;;;;;;2.87;1.50;;;3.20;55.90;;;;;;4976366;28;47980;-70
2023/12/05 07:22:45;;;;;;;3.00;1.50;;;3.30;55.90;;;;;;4981314;28;46689;-70
2023/12/05 07:25:11;;;;;;;3.35;2.00;;;3.30;55.90;;;;;;4984491;28;46360;-71
2023/12/05 07:27:36;;;;;;;8.77;6.03;;;3.40;55.80;;;;;;4981315;28;46701;-71
2023/12/05 07:30:03;;;;;;;7.27;5.53;;;3.40;55.90;;;;;;4979364;28;46416;-72
2023/12/05 07:32:29;;;;;;;4.60;3.03;;;3.30;55.90;;;;;;4978739;28;46474;-70
2023/12/05 07:34:54;;;;;;;37.40;18.77;;;3.30;56.20;;;;;;4977014;28;46249;-70
2023/12/05 07:37:20;;;;;;;20.83;12.63;;;3.30;56.40;;;;;;4980120;28;46633;-70
2023/12/05 07:39:46;;;;;;;5.30;2.97;;;3.30;56.50;;;;;;4975535;28;46520;-70
2023/12/05 07:42:11;;;;;;;4.97;3.40;;;3.30;56.60;;;;;;4984029;28;46621;-72
2023/12/05 07:44:37;;;;;;;4.67;2.60;;;3.30;56.60;;;;;;4981517;28;46519;-71
2023/12/05 07:47:03;;;;;;;3.40;2.67;;;3.30;57.00;;;;;;4977929;28;46105;-71
2023/12/05 07:49:28;;;;;;;3.63;2.20;;;3.20;57.20;;;;;;4983065;28;48797;-71
2023/12/05 07:51:55;;;;;;;5.17;2.47;;;3.20;57.90;;;;;;4986180;28;46344;-73
2023/12/05 07:54:21;;;;;;;4.30;2.90;;;3.20;58.20;;;;;;4980374;28;46403;-70
2023/12/05 07:56:46;;;;;;;5.67;2.70;;;3.20;58.40;;;;;;4978486;28;46534;-72
2023/12/05 07:59:12;;;;;;;6.77;2.30;;;3.20;58.30;;;;;;4980812;28;47331;-72
2023/12/05 08:01:42;;;;;;;4.83;1.60;;;3.20;58.30;;;;;;4981660;28;46566;-70
2023/12/05 08:04:08;;;;;;;13.13;5.70;;;3.20;58.30;;;;;;4981739;28;46520;-68
2023/12/05 08:06:34;;;;;;;4.90;2.50;;;3.20;58.50;;;;;;4982175;28;46731;-72
2023/12/05 08:08:59;;;;;;;6.20;2.30;;;3.10;58.80;;;;;;4977325;28;46494;-73
2023/12/05 08:11:25;;;;;;;5.30;2.13;;;3.10;59.50;;;;;;4977164;28;46363;-69
2023/12/05 08:13:51;;;;;;;4.70;2.20;;;3.00;59.40;;;;;;4982207;28;46360;-70
2023/12/05 08:16:16;;;;;;;3.27;1.80;;;3.00;59.40;;;;;;4980402;28;46758;-68
2023/12/05 08:18:42;;;;;;;3.80;1.57;;;2.90;59.40;;;;;;4993616;28;46468;-70
2023/12/05 08:21:08;;;;;;;2.90;1.90;;;2.90;59.50;;;;;;4979366;28;46489;-70
2023/12/05 08:23:34;;;;;;;3.65;2.10;;;2.90;59.40;;;;;;4980330;28;46492;-70
2023/12/05 08:26:00;;;;;;;7.10;1.73;;;3.00;59.40;;;;;;4982050;28;46749;-72
2023/12/05 08:28:25;;;;;;;5.07;2.40;;;3.10;59.50;;;;;;4969033;28;48269;-72
2023/12/05 08:30:51;;;;;;;6.40;2.20;;;3.10;59.50;;;;;;4977701;28;46495;-72
2023/12/05 08:33:18;;;;;;;5.37;2.20;;;3.20;59.60;;;;;;4978866;28;46476;-70
2023/12/05 08:35:45;;;;;;;3.67;2.35;;;3.40;59.70;;;;;;4980398;28;46431;-70
2023/12/05 08:38:11;;;;;;;3.53;2.05;;;3.50;59.00;;;;;;4978217;28;49063;-69
2023/12/05 08:40:37;;;;;;;8.13;2.83;;;3.70;59.70;;;;;;4977129;28;46362;-71
2023/12/05 08:43:03;;;;;;;3.40;2.30;;;3.90;58.20;;;;;;4981013;28;46534;-71
2023/12/05 08:45:29;;;;;;;2.90;2.17;;;4.00;57.80;;;;;;4972460;28;46523;-70
2023/12/05 08:47:55;;;;;;;3.90;2.23;;;4.20;57.50;;;;;;4980350;28;47985;-71
2023/12/05 08:50:21;;;;;;;3.67;2.13;;;4.40;57.00;;;;;;4980494;28;46498;-70
2023/12/05 08:52:47;;;;;;;5.18;2.75;;;4.60;56.30;;;;;;4978822;28;46476;-70
2023/12/05 08:55:13;;;;;;;4.93;2.70;;;4.70;55.90;;;;;;4984721;28;46435;-70
2023/12/05 08:57:39;;;;;;;6.07;3.50;;;4.90;55.70;;;;;;4979758;28;47864;-68
2023/12/05 09:00:05;;;;;;;4.27;3.10;;;5.00;55.10;;;;;;4979514;28;46457;-70
2023/12/05 09:02:31;;;;;;;6.03;2.63;;;5.20;55.00;;;;;;4972734;28;46492;-71
2023/12/05 09:04:57;;;;;;;5.50;2.70;;;5.30;54.70;;;;;;4982643;28;46384;-72
2023/12/05 09:07:23;;;;;;;5.30;2.97;;;5.40;54.60;;;;;;4978556;28;48939;-68
2023/12/05 09:09:49;;;;;;;4.67;3.03;;;5.50;54.70;;;;;;4978291;28;46471;-70
2023/12/05 09:12:15;;;;;;;7.40;3.00;;;5.50;54.70;;;;;;4978979;28;46253;-72
2023/12/05 09:14:42;;;;;;;6.63;3.00;;;5.60;54.70;;;;;;4978841;28;46945;-71
2023/12/05 09:17:09;;;;;;;3.97;2.70;;;5.70;54.80;;;;;;4979248;28;48661;-71
2023/12/05 09:19:38;;;;;;;4.90;2.70;;;5.70;54.70;;;;;;4983077;28;46395;-72
2023/12/05 09:22:03;;;;;;;4.00;2.87;;;5.90;54.90;;;;;;4974835;28;46522;-72
2023/12/05 09:24:29;;;;;;;5.10;2.60;;;6.20;54.80;;;;;;4982466;28;46640;-72
2023/12/05 09:26:55;;;;;;;5.27;2.27;;;6.50;54.40;;;;;;4980070;28;46737;-69
2023/12/05 09:29:21;;;;;;;3.60;2.40;;;6.90;53.70;;;;;;4979756;28;46673;-70
2023/12/05 09:31:47;;;;;;;10.53;3.33;;;7.10;52.70;;;;;;4964456;28;46499;-70
2023/12/05 09:34:12;;;;;;;5.00;2.80;;;7.30;52.20;;;;;;4981143;28;46703;-70
2023/12/05 09:36:38;;;;;;;12.33;5.03;;;7.40;51.60;;;;;;4981021;28;48173;-72
2023/12/05 09:39:04;;;;;;;6.60;3.03;;;7.30;51.60;;;;;;4977253;28;46730;-71
2023/12/05 09:41:31;;;;;;;6.87;3.87;;;7.20;51.60;;;;;;4975428;28;46231;-71
2023/12/05 09:44:01;;;;;;;9.23;3.60;;;7.20;51.70;;;;;;4980637;28;46444;-71
2023/12/05 09:46:29;;;;;;;5.90;3.50;;;7.20;51.60;;;;;;4974867;28;47826;-72
2023/12/05 09:49:01;;;;;;;9.63;4.00;;;7.30;51.50;;;;;;4971163;28;46486;-71
2023/12/05 09:51:28;;;;;;;19.60;4.73;;;7.30;51.10;;;;;;4966005;28;46519;-71
2023/12/05 09:53:55;;;;;;;7.13;3.60;;;7.40;50.40;;;;;;4976255;28;45891;-71
2023/12/05 09:56:22;;;;;;;12.10;3.90;;;7.40;50.40;;;;;;4977238;28;48069;-71
2023/12/05 09:58:48;;;;;;;8.20;3.70;;;7.50;50.50;;;;;;4983087;28;46536;-70
2023/12/05 10:01:16;;;;;;;6.27;3.67;;;7.40;50.40;;;;;;4981327;28;45998;-70
2023/12/05 10:03:43;;;;;;;7.43;3.43;;;7.40;50.40;;;;;;4968371;28;46474;-70
2023/12/05 10:06:10;;;;;;;7.43;4.17;;;7.40;50.40;;;;;;4982291;28;47759;-70
2023/12/05 10:08:37;;;;;;;6.00;3.33;;;7.30;50.30;;;;;;4984760;28;46410;-70
2023/12/05 10:11:04;;;;;;;9.53;3.20;;;7.20;50.20;;;;;;4983471;28;46392;-68
2023/12/05 10:13:31;;;;;;;7.53;3.20;;;7.30;50.30;;;;;;4980501;28;46560;-69
2023/12/05 10:16:00;;;;;;;6.80;3.20;;;7.20;50.20;;;;;;4983016;28;47997;-70
2023/12/05 10:18:30;;;;;;;9.13;3.30;;;7.30;50.30;;;;;;4983437;28;46698;-71
2023/12/05 10:20:56;;;;;;;5.27;3.20;;;7.40;50.40;;;;;;4970379;28;46679;-72
2023/12/05 10:23:22;;;;;;;12.87;6.83;;;7.10;50.20;;;;;;4977607;28;46488;-70
2023/12/05 10:25:48;;;;;;;21.33;10.50;;;6.90;50.00;;;;;;4980371;28;48710;-69
2023/12/05 10:28:13;;;;;;;16.80;7.80;;;6.80;50.40;;;;;;4973928;28;46525;-70
2023/12/05 10:30:39;;;;;;;4.57;2.63;;;6.70;50.50;;;;;;4981320;28;46508;-70
2023/12/05 10:33:24;;;;;;;7.40;4.10;;;7.00;50.60;;;;;;4981381;28;46678;-70
2023/12/05 10:35:50;;;;;;;9.77;5.77;;;7.20;50.20;;;;;;4984387;28;47949;-71
2023/12/05 10:38:19;;;;;;;12.90;5.00;;;7.40;50.40;;;;;;4981378;28;46573;-70
2023/12/05 10:41:01;;;;;;;8.17;4.93;;;7.50;50.20;;;;;;4980073;28;46516;-70
2023/12/05 10:43:28;;;;;;;4.87;2.80;;;7.40;49.70;;;;;;4982506;28;46562;-70
2023/12/05 10:45:54;;;;;;;7.93;5.33;;;7.40;49.60;;;;;;4979141;28;48115;-70
2023/12/05 10:48:24;;;;;;;4.83;3.03;;;7.30;49.50;;;;;;4981458;28;46438;-71
2023/12/05 10:50:53;;;;;;;5.37;2.97;;;7.20;50.20;;;;;;4981733;28;46775;-72
2023/12/05 10:53:19;;;;;;;11.00;2.60;;;7.10;50.10;;;;;;4984709;28;46856;-71
2023/12/05 10:55:45;;;;;;;5.70;2.70;;;6.90;50.00;;;;;;4981279;28;47069;-71
2023/12/05 10:58:11;;;;;;;8.07;4.40;;;6.80;49.90;;;;;;4998930;28;46437;-71
2023/12/05 11:00:39;;;;;;;6.57;3.80;;;6.70;49.80;;;;;;4969099;28;46459;-70
2023/12/05 11:03:05;;;;;;;4.40;2.10;;;6.50;49.60;;;;;;4995227;28;46549;-71
2023/12/05 11:05:32;;;;;;;4.93;1.77;;;6.40;49.60;;;;;;4981857;28;48076;-71
2023/12/05 11:07:59;;;;;;;3.73;2.37;;;6.40;50.10;;;;;;4984689;28;46271;-73
2023/12/05 11:10:28;;;;;;;5.80;3.60;;;6.30;50.40;;;;;;4981159;28;46499;-72
2023/12/05 11:12:55;;;;;;;15.47;8.10;;;6.10;50.60;;;;;;4967864;28;46588;-72
2023/12/05 11:15:25;;;;;;;5.73;3.40;;;6.10;50.70;;;;;;4984189;28;48104;-70
2023/12/05 11:17:58;;;;;;;3.40;1.83;;;6.10;50.80;;;;;;4979541;28;46696;-72
2023/12/05 11:21:06;;;;;;;4.10;2.67;;;6.10;50.50;;;;;;4970831;28;46672;-73
2023/12/05 11:23:41;;;;;;;5.20;2.70;;;6.20;49.80;;;;;;4972367;28;46778;-70
2023/12/05 11:26:23;;;;;;;6.10;1.80;;;6.20;49.40;;;;;;4984208;28;48779;-72
2023/12/05 11:29:08;;;;;;;3.03;1.83;;;6.30;49.50;;;;;;4995218;28;46478;-72
2023/12/05 11:31:43;;;;;;;4.07;1.87;;;6.30;49.40;;;;;;4981919;28;46403;-71
2023/12/05 11:34:30;;;;;;;2.70;1.60;;;6.40;49.50;;;;;;4968337;28;46507;-72
2023/12/05 11:37:27;;;;;;;2.93;1.50;;;6.40;49.50;;;;;;4987038;28;47856;-72
2023/12/05 11:39:53;;;;;;;4.00;1.17;;;6.30;49.40;;;;;;4985460;28;46437;-71
2023/12/05 11:42:19;;;;;;;3.20;1.77;;;6.20;49.40;;;;;;4977695;28;46577;-71
2023/12/05 11:44:45;;;;;;;2.10;1.10;;;6.10;49.30;;;;;;4973916;28;46444;-72
2023/12/05 11:47:14;;;;;;;3.20;1.80;;;6.10;49.50;;;;;;4982081;28;48796;-72
2023/12/05 11:49:50;;;;;;;2.93;1.50;;;6.00;49.40;;;;;;4963360;28;45828;-72
2023/12/05 11:52:18;;;;;;;7.90;4.43;;;6.00;49.70;;;;;;4980402;28;46515;-70
2023/12/05 11:54:45;;;;;;;4.00;2.33;;;6.00;49.20;;;;;;4975919;28;46734;-70
2023/12/05 11:57:16;;;;;;;4.20;1.90;;;6.10;49.30;;;;;;4980477;28;48912;-71
2023/12/05 11:59:45;;;;;;;3.10;1.50;;;6.20;49.40;;;;;;4977200;28;45801;-71
2023/12/05 12:02:19;;;;;;;3.43;1.60;;;6.30;49.40;;;;;;4967889;28;45930;-71
2023/12/05 12:04:45;;;;;;;2.90;2.03;;;6.40;49.00;;;;;;4980527;28;46393;-71
2023/12/05 12:07:11;;;;;;;3.80;2.47;;;6.40;48.80;;;;;;4977943;28;48038;-71
2023/12/05 12:09:40;;;;;;;4.13;2.50;;;6.40;48.70;;;;;;4977538;28;46792;-70
2023/12/05 12:12:07;;;;;;;2.93;1.40;;;6.40;48.60;;;;;;4975642;28;46895;-71
2023/12/05 12:14:33;;;;;;;5.27;3.03;;;6.40;48.40;;;;;;4979433;28;46913;-71
2023/12/05 12:17:00;;;;;;;6.50;2.80;;;6.40;48.20;;;;;;4977015;28;48158;-73
2023/12/05 12:19:26;;;;;;;4.67;2.80;;;6.40;48.30;;;;;;4976358;28;46718;-72
2023/12/05 12:21:52;;;;;;;2.40;1.53;;;6.30;48.60;;;;;;4968151;28;46857;-74
2023/12/05 12:24:25;;;;;;;6.43;3.60;;;6.20;48.90;;;;;;4980058;28;46506;-72
2023/12/05 12:26:55;;;;;;;7.20;2.60;;;6.20;49.10;;;;;;4967977;28;46606;-72
2023/12/05 12:29:22;;;;;;;9.73;3.23;;;6.10;49.30;;;;;;4982488;28;46722;-74
2023/12/05 12:31:49;;;;;;;9.10;3.90;;;6.10;50.40;;;;;;4982113;28;46434;-72
2023/12/05 12:34:26;;;;;;;5.60;3.00;;;6.10;49.20;;;;;;4979794;28;46781;-72
2023/12/05 12:36:51;;;;;;;6.10;3.20;;;6.10;48.80;;;;;;4977169;28;47862;-73
2023/12/05 12:39:19;;;;;;;7.90;3.80;;;6.20;48.70;;;;;;4977949;28;46466;-74
2023/12/05 12:41:48;;;;;;;9.03;2.33;;;6.20;48.30;;;;;;4978340;28;46429;-73
2023/12/05 12:44:15;;;;;;;7.37;3.37;;;6.20;48.20;;;;;;4975041;28;46582;-73
2023/12/05 12:46:41;;;;;;;16.47;7.30;;;6.10;48.10;;;;;;4974169;28;46638;-71
2023/12/05 12:49:07;;;;;;;4.33;2.80;;;6.00;48.10;;;;;;4974840;28;46427;-71
2023/12/05 12:51:34;;;;;;;6.80;3.50;;;6.00;48.10;;;;;;4972776;28;46368;-70